createdAt,value
2022-10-04T00:01:58.206Z,101884.53
2022-10-04T00:04:31.989Z,101881.06
2022-10-04T00:07:06.631Z,101878.47
2022-10-04T00:09:46.690Z,101885.41
2022-10-04T00:12:24.206Z,101881.06
2022-10-04T00:14:53.036Z,101882.81
2022-10-04T00:17:28.852Z,101881.94
2022-10-04T00:19:56.010Z,101877.59
2022-10-04T00:22:33.175Z,101875.84
2022-10-04T00:25:08.557Z,101871.50
2022-10-04T00:27:36.620Z,101871.50
2022-10-04T00:30:02.877Z,101871.50
2022-10-04T00:32:39.016Z,101872.38
2022-10-04T00:35:25.307Z,101870.59
2022-10-04T00:38:00.851Z,101867.13
2022-10-04T00:40:34.767Z,101868.00
2022-10-04T00:43:38.710Z,101856.72
2022-10-04T00:46:26.151Z,101860.19
2022-10-04T00:48:58.878Z,101855.84
2022-10-04T00:51:43.244Z,101854.97
2022-10-04T00:54:12.716Z,101851.50
2022-10-04T00:56:52.750Z,101856.72
2022-10-04T00:59:28.496Z,101854.94
2022-10-04T01:02:07.923Z,101854.06
2022-10-04T01:04:46.448Z,101837.59
2022-10-04T01:07:17.523Z,101843.66
2022-10-04T01:09:55.968Z,101841.06
2022-10-04T01:12:51.524Z,101842.78
2022-10-04T01:15:42.987Z,101832.34
2022-10-04T01:18:20.275Z,101836.72
2022-10-04T01:20:57.090Z,101844.50
2022-10-04T01:23:44.451Z,101836.69
2022-10-04T01:26:29.522Z,101837.56
2022-10-04T01:29:01.593Z,101828.88
2022-10-04T01:31:29.530Z,101823.66
2022-10-04T01:33:56.546Z,101809.78
2022-10-04T01:36:23.444Z,101809.75
2022-10-04T01:38:50.835Z,101811.50
2022-10-04T01:41:49.119Z,101821.91
2022-10-04T01:44:41.686Z,101820.19
2022-10-04T01:47:41.213Z,101817.56
2022-10-04T01:50:19.174Z,101811.50
2022-10-04T01:52:53.590Z,101816.72
2022-10-04T01:55:26.619Z,101811.50
2022-10-04T01:58:00.698Z,101805.41
2022-10-04T02:00:28.562Z,101793.25
2022-10-04T02:03:17.517Z,101801.06
2022-10-04T02:05:51.978Z,101794.09
2022-10-04T02:08:25.590Z,101781.09
2022-10-04T02:10:54.513Z,101787.19
2022-10-04T02:13:24.247Z,101787.19
2022-10-04T02:15:50.832Z,101785.44
2022-10-04T02:18:20.628Z,101783.69
2022-10-04T02:20:49.484Z,101787.16
2022-10-04T02:23:19.409Z,101790.63
2022-10-04T02:25:46.210Z,101784.59
2022-10-04T02:28:15.373Z,101778.47
2022-10-04T02:31:09.062Z,101775.00
2022-10-04T02:33:43.718Z,101774.13
2022-10-04T02:36:10.700Z,101775.00
2022-10-04T02:38:44.258Z,101763.72
2022-10-04T02:41:26.086Z,101773.25
2022-10-04T02:44:03.176Z,101768.06
2022-10-04T02:46:47.538Z,101764.59
2022-10-04T02:49:26.846Z,101761.13
2022-10-04T02:52:21.480Z,101765.47
2022-10-04T02:55:16.695Z,101765.44
2022-10-04T02:57:44.277Z,101764.59
2022-10-04T03:00:19.764Z,101762.84
2022-10-04T03:03:11.016Z,101762.84
2022-10-04T03:05:38.641Z,101748.97
2022-10-04T03:08:05.959Z,101742.88
2022-10-04T03:10:32.933Z,101748.97
2022-10-04T03:12:59.341Z,101738.56
2022-10-04T03:15:25.715Z,101741.16
2022-10-04T03:17:52.271Z,101755.03
2022-10-04T03:20:21.239Z,101755.03
2022-10-04T03:22:52.450Z,101745.50
2022-10-04T03:25:24.898Z,101750.69
2022-10-04T03:27:51.971Z,101748.97
2022-10-04T03:30:21.672Z,101751.56
2022-10-04T03:32:49.443Z,101749.81
2022-10-04T03:35:34.577Z,101750.69
2022-10-04T03:38:04.921Z,101757.63
2022-10-04T03:40:33.048Z,101760.25
2022-10-04T03:43:02.356Z,101757.66
2022-10-04T03:45:29.711Z,101752.44
2022-10-04T03:48:02.254Z,101747.22
2022-10-04T03:50:34.168Z,101755.91
2022-10-04T03:53:07.140Z,101751.56
2022-10-04T03:55:38.640Z,101743.75
2022-10-04T03:58:06.512Z,101751.56
2022-10-04T04:00:38.377Z,101752.44
2022-10-04T04:03:10.100Z,101754.16
2022-10-04T04:05:50.950Z,101747.25
2022-10-04T04:08:33.676Z,101746.34
2022-10-04T04:11:04.336Z,101751.56
2022-10-04T04:14:12.340Z,101742.88
2022-10-04T04:16:38.970Z,101747.22
2022-10-04T04:19:13.205Z,101747.22
2022-10-04T04:21:41.096Z,101753.31
2022-10-04T04:24:21.974Z,101746.34
2022-10-04T04:27:03.116Z,101746.34
2022-10-04T04:29:48.444Z,101740.28
2022-10-04T04:32:44.866Z,101750.69
2022-10-04T04:35:31.071Z,101749.81
2022-10-04T04:38:24.508Z,101742.03
2022-10-04T04:40:55.525Z,101747.22
2022-10-04T04:43:25.658Z,101743.75
2022-10-04T04:46:15.082Z,101745.50
2022-10-04T04:48:43.201Z,101734.19
2022-10-04T04:51:20.465Z,101728.13
2022-10-04T04:53:48.032Z,101724.66
2022-10-04T04:56:19.233Z,101709.91
2022-10-04T04:58:48.711Z,101715.13
2022-10-04T05:01:23.331Z,101710.75
2022-10-04T05:04:17.472Z,101711.66
2022-10-04T05:06:46.514Z,101712.50
2022-10-04T05:09:26.134Z,101709.03
2022-10-04T05:11:57.945Z,101715.09
2022-10-04T05:14:24.625Z,101715.97
2022-10-04T05:16:55.513Z,101725.53
2022-10-04T05:19:28.271Z,101715.09
2022-10-04T05:21:56.903Z,101724.66
2022-10-04T05:24:28.956Z,101714.25
2022-10-04T05:26:59.489Z,101720.31
2022-10-04T05:29:34.511Z,101718.56
2022-10-04T05:32:11.547Z,101722.94
2022-10-04T05:34:40.102Z,101725.50
2022-10-04T05:37:20.356Z,101715.13
2022-10-04T05:40:04.813Z,101713.34
2022-10-04T05:42:44.432Z,101718.56
2022-10-04T05:45:31.076Z,101724.66
2022-10-04T05:48:01.114Z,101722.94
2022-10-04T05:50:41.464Z,101725.50
2022-10-04T05:53:35.512Z,101722.06
2022-10-04T05:56:29.912Z,101723.78
2022-10-04T05:59:24.413Z,101724.66
2022-10-04T06:02:02.640Z,101723.78
2022-10-04T06:04:45.325Z,101731.59
2022-10-04T06:07:16.388Z,101729.88
2022-10-04T06:09:56.491Z,101727.28
2022-10-04T06:12:30.058Z,101724.66
2022-10-04T06:15:09.746Z,101728.13
2022-10-04T06:17:56.176Z,101731.59
2022-10-04T06:20:44.405Z,101722.91
2022-10-04T06:23:16.817Z,101721.19
2022-10-04T06:25:49.692Z,101725.53
2022-10-04T06:28:51.390Z,101716.84
2022-10-04T06:31:49.443Z,101722.94
2022-10-04T06:34:31.037Z,101713.34
2022-10-04T06:37:16.201Z,101709.88
2022-10-04T06:39:57.774Z,101708.16
2022-10-04T06:42:55.144Z,101714.22
2022-10-04T06:45:40.081Z,101719.47
2022-10-04T06:48:28.699Z,101725.50
2022-10-04T06:51:18.067Z,101714.22
2022-10-04T06:54:12.336Z,101715.09
2022-10-04T06:56:58.442Z,101709.03
2022-10-04T06:59:44.894Z,101718.56
2022-10-04T07:02:29.237Z,101709.00
2022-10-04T07:05:09.396Z,101712.47
2022-10-04T07:07:39.524Z,101724.63
2022-10-04T07:10:31.265Z,101724.63
2022-10-04T07:13:03.659Z,101725.47
2022-10-04T07:15:50.823Z,101736.78
2022-10-04T07:18:25.054Z,101731.53
2022-10-04T07:21:01.610Z,101727.22
2022-10-04T07:23:44.994Z,101728.91
2022-10-04T07:26:23.535Z,101730.66
2022-10-04T07:29:10.499Z,101734.13
2022-10-04T07:31:38.667Z,101737.56
2022-10-04T07:34:17.146Z,101736.66
2022-10-04T07:36:48.927Z,101738.41
2022-10-04T07:39:18.932Z,101727.91
2022-10-04T07:41:50.289Z,101739.22
2022-10-04T07:44:27.380Z,101738.31
2022-10-04T07:47:12.927Z,101739.19
2022-10-04T07:49:40.654Z,101736.53
2022-10-04T07:52:32.735Z,101735.69
2022-10-04T07:55:07.766Z,101729.53
2022-10-04T07:58:09.406Z,101733.81
2022-10-04T08:01:02.372Z,101735.53
2022-10-04T08:03:50.649Z,101738.94
2022-10-04T08:06:37.656Z,101739.81
2022-10-04T08:09:30.372Z,101743.25
2022-10-04T08:12:11.188Z,101738.88
2022-10-04T08:14:43.677Z,101739.69
2022-10-04T08:17:15.333Z,101745.84
2022-10-04T08:20:07.041Z,101742.28
2022-10-04T08:22:40.804Z,101739.53
2022-10-04T08:25:42.398Z,101736.06
2022-10-04T08:28:36.793Z,101732.50
2022-10-04T08:31:39.289Z,101733.34
2022-10-04T08:34:31.718Z,101731.56
2022-10-04T08:37:19.802Z,101736.84
2022-10-04T08:40:33.674Z,101738.53
2022-10-04T08:43:38.148Z,101728.84
2022-10-04T08:46:25.903Z,101726.25
2022-10-04T08:49:08.964Z,101732.16
2022-10-04T08:52:09.492Z,101728.69
2022-10-04T08:54:45.218Z,101733.75
2022-10-04T08:57:15.881Z,101720.47
2022-10-04T08:59:57.949Z,101725.63
2022-10-04T09:02:24.289Z,101726.44
2022-10-04T09:05:33.871Z,101724.66
2022-10-04T09:08:38.126Z,101726.28
2022-10-04T09:11:10.367Z,101718.34
2022-10-04T09:14:00.953Z,101711.41
2022-10-04T09:16:56.568Z,101714.81
2022-10-04T09:19:34.022Z,101707.88
2022-10-04T09:22:16.815Z,101708.69
2022-10-04T09:25:20.308Z,101702.44
2022-10-04T09:28:17.828Z,101701.63
2022-10-04T09:31:00.393Z,101702.38
2022-10-04T09:33:43.288Z,101692.78
2022-10-04T09:36:32.682Z,101701.41
2022-10-04T09:39:31.230Z,101689.13
2022-10-04T09:42:26.367Z,101684.53
2022-10-04T09:45:06.130Z,101687.03
2022-10-04T09:47:40.880Z,101686.31
2022-10-04T09:50:26.715Z,101681.81
2022-10-04T09:53:20.368Z,101689.63
2022-10-04T09:56:11.225Z,101688.50
2022-10-04T09:59:14.640Z,101687.22
2022-10-04T10:02:28.992Z,101687.97
2022-10-04T10:05:24.870Z,101683.00
2022-10-04T10:08:11.000Z,101688.25
2022-10-04T10:11:25.857Z,101686.69
2022-10-04T10:14:23.233Z,101691.00
2022-10-04T10:17:37.785Z,101687.75
2022-10-04T10:20:40.798Z,101697.94
2022-10-04T10:23:45.283Z,101688.06
2022-10-04T10:26:32.830Z,101683.53
2022-10-04T10:29:04.391Z,101684.31
2022-10-04T10:31:51.270Z,101681.00
2022-10-04T10:34:36.340Z,101679.03
2022-10-04T10:37:35.619Z,101670.00
2022-10-04T10:40:23.653Z,101670.47
2022-10-04T10:43:04.024Z,101676.44
2022-10-04T10:45:38.016Z,101671.00
2022-10-04T10:48:43.827Z,101673.31
2022-10-04T10:51:18.454Z,101659.06
2022-10-04T10:54:18.145Z,101651.13
2022-10-04T10:56:56.570Z,101654.59
2022-10-04T11:00:12.804Z,101650.78
2022-10-04T11:03:13.032Z,101647.91
2022-10-04T11:06:15.491Z,101641.59
2022-10-04T11:09:20.387Z,101636.81
2022-10-04T11:12:05.557Z,101640.97
2022-10-04T11:15:25.926Z,101635.41
2022-10-04T11:18:46.345Z,101638.75
2022-10-04T11:21:21.718Z,101634.84
2022-10-04T11:23:59.346Z,101632.06
2022-10-04T11:27:03.914Z,101629.50
2022-10-04T11:29:35.992Z,101623.16
2022-10-04T11:32:02.265Z,101631.03
2022-10-04T11:34:59.471Z,101632.69
2022-10-04T11:37:53.585Z,101612.00
2022-10-04T11:40:47.961Z,101614.69
2022-10-04T11:43:52.447Z,101607.47
2022-10-04T11:46:29.547Z,101607.38
2022-10-04T11:49:05.984Z,101606.22
2022-10-04T11:52:04.513Z,101591.88
2022-10-04T11:55:01.823Z,101589.44
2022-10-04T11:57:40.540Z,101578.72
2022-10-04T12:00:11.680Z,101574.47
2022-10-04T12:03:13.672Z,101577.94
2022-10-04T12:06:23.304Z,101574.09
2022-10-04T12:09:31.723Z,101571.00
2022-10-04T12:12:39.480Z,101567.72
2022-10-04T12:15:38.367Z,101570.44
2022-10-04T12:18:28.377Z,101566.28
2022-10-04T12:21:06.976Z,101551.53
2022-10-04T12:24:05.306Z,101551.38
2022-10-04T12:26:54.812Z,101555.22
2022-10-04T12:30:00.042Z,101549.19
2022-10-04T12:32:32.064Z,101548.22
2022-10-04T12:35:08.866Z,101536.53
2022-10-04T12:37:56.939Z,101536.97
2022-10-04T12:40:47.247Z,101534.69
2022-10-04T12:43:14.687Z,101523.19
2022-10-04T12:46:07.042Z,101516.84
2022-10-04T12:48:47.355Z,101518.00
2022-10-04T12:51:42.510Z,101515.47
2022-10-04T12:54:31.902Z,101516.41
2022-10-04T12:57:13.395Z,101514.03
2022-10-04T12:59:48.747Z,101513.09
2022-10-04T13:02:26.817Z,101509.06
2022-10-04T13:05:01.571Z,101509.59
2022-10-04T13:07:51.222Z,101511.03
2022-10-04T13:10:44.385Z,101503.81
2022-10-04T13:13:29.250Z,101511.59
2022-10-04T13:19:19.395Z,101508.97
2022-10-04T13:22:55.469Z,101529.75
2022-10-04T13:25:31.740Z,101521.47
2022-10-04T13:28:08.180Z,101509.47
2022-10-04T13:30:43.433Z,101501.78
2022-10-04T13:33:09.884Z,101499.13
2022-10-04T13:36:08.336Z,101502.81
2022-10-04T13:38:40.431Z,101502.91
2022-10-04T13:41:15.498Z,101496.81
2022-10-04T13:44:10.296Z,101492.00
2022-10-04T13:47:17.562Z,101486.91
2022-10-04T13:50:15.034Z,101473.97
2022-10-04T13:53:23.356Z,101464.63
2022-10-04T13:56:26.758Z,101454.28
2022-10-04T13:58:56.109Z,101449.91
2022-10-04T14:01:31.206Z,101439.47
2022-10-04T14:04:11.786Z,101432.38
2022-10-04T14:07:02.989Z,101433.19
2022-10-04T14:10:23.532Z,101432.69
2022-10-04T14:13:07.523Z,101446.13
2022-10-04T14:16:05.723Z,101445.25
2022-10-04T14:18:54.595Z,101440.97
2022-10-04T14:21:59.956Z,101438.25
2022-10-04T14:24:35.338Z,101425.50
2022-10-04T14:27:22.355Z,101415.13
2022-10-04T14:30:07.922Z,101424.28
2022-10-04T14:33:07.590Z,101424.09
2022-10-04T14:35:41.435Z,101413.69
2022-10-04T14:38:38.915Z,101400.31
2022-10-04T14:41:31.667Z,101394.94
2022-10-04T14:44:23.359Z,101403.06
2022-10-04T14:47:05.796Z,101403.50
2022-10-04T14:50:01.135Z,101407.34
2022-10-04T14:52:48.175Z,101407.81
2022-10-04T14:55:49.547Z,101402.00
2022-10-04T14:58:16.160Z,101408.59
2022-10-04T15:01:20.421Z,101405.97
2022-10-04T15:04:06.942Z,101408.69
2022-10-04T15:06:43.233Z,101413.16
2022-10-04T15:09:52.109Z,101411.34
2022-10-04T15:12:51.977Z,101418.59
2022-10-04T15:15:31.777Z,101419.41
2022-10-04T15:18:04.185Z,101407.16
2022-10-04T15:20:55.799Z,101406.41
2022-10-04T15:23:38.166Z,101416.28
2022-10-04T15:26:07.035Z,101417.50
2022-10-04T15:28:50.357Z,101417.34
2022-10-04T15:31:35.027Z,101408.59
2022-10-04T15:34:01.414Z,101418.69
2022-10-04T15:36:51.711Z,101433.78
2022-10-04T15:39:33.650Z,101436.16
2022-10-04T15:42:11.702Z,101433.97
2022-10-04T15:45:04.691Z,101426.16
2022-10-04T15:47:51.278Z,101420.13
2022-10-04T15:50:26.891Z,101412.53
2022-10-04T15:53:10.418Z,101412.28
2022-10-04T15:55:36.697Z,101400.22
2022-10-04T15:58:24.791Z,101392.66
2022-10-04T16:01:13.042Z,101386.34
2022-10-04T16:03:50.296Z,101380.09
2022-10-04T16:06:27.858Z,101383.44
2022-10-04T16:09:17.111Z,101377.41
2022-10-04T16:12:32.283Z,101375.81
2022-10-04T16:15:12.743Z,101373.63
2022-10-04T16:17:58.657Z,101374.00
2022-10-04T16:20:59.657Z,101375.94
2022-10-04T16:23:31.741Z,101376.97
2022-10-04T16:26:10.884Z,101385.06
2022-10-04T16:28:51.420Z,101386.28
2022-10-04T16:31:39.197Z,101381.22
2022-10-04T16:34:07.066Z,101384.00
2022-10-04T16:36:45.474Z,101380.78
2022-10-04T16:39:31.794Z,101376.84
2022-10-04T16:42:03.827Z,101372.06
2022-10-04T16:44:47.976Z,101374.97
2022-10-04T16:47:34.763Z,101390.00
2022-10-04T16:50:04.696Z,101387.50
2022-10-04T16:52:58.827Z,101393.66
2022-10-04T16:55:28.330Z,101394.16
2022-10-04T16:58:29.486Z,101389.19
2022-10-04T17:01:23.840Z,101386.72
2022-10-04T17:04:05.483Z,101381.06
2022-10-04T17:06:52.479Z,101381.13
2022-10-04T17:10:12.563Z,101389.34
2022-10-04T17:13:17.685Z,101393.09
2022-10-04T17:16:14.563Z,101395.81
2022-10-04T17:19:07.959Z,101395.72
2022-10-04T17:21:43.172Z,101382.69
2022-10-04T17:24:20.961Z,101378.31
2022-10-04T17:27:12.915Z,101373.19
2022-10-04T17:30:18.242Z,101381.19
2022-10-04T17:33:06.117Z,101378.75
2022-10-04T17:36:20.066Z,101397.16
2022-10-04T17:38:59.952Z,101400.72
2022-10-04T17:42:02.900Z,101405.97
2022-10-04T17:45:07.645Z,101398.97
2022-10-04T17:47:57.810Z,101412.91
2022-10-04T17:51:05.016Z,101412.97
2022-10-04T17:53:54.376Z,101401.69
2022-10-04T17:56:42.592Z,101388.72
2022-10-04T17:59:18.020Z,101393.06
2022-10-04T18:01:49.294Z,101391.41
2022-10-04T18:04:27.890Z,101388.00
2022-10-04T18:07:01.867Z,101393.28
2022-10-04T18:09:33.861Z,101396.78
2022-10-04T18:12:05.955Z,101397.78
2022-10-04T18:14:35.159Z,101395.19
2022-10-04T18:17:09.201Z,101392.63
2022-10-04T18:19:49.229Z,101392.69
2022-10-04T18:22:21.595Z,101405.00
2022-10-04T18:25:09.839Z,101408.44
2022-10-04T18:27:49.102Z,101404.97
2022-10-04T18:30:18.959Z,101411.91
2022-10-04T18:32:57.241Z,101408.44
2022-10-04T18:35:27.255Z,101398.06
2022-10-04T18:38:11.771Z,101389.44
2022-10-04T18:40:43.281Z,101384.28
2022-10-04T18:43:40.159Z,101379.97
2022-10-04T18:46:26.854Z,101377.38
2022-10-04T18:49:13.366Z,101379.09
2022-10-04T18:52:01.494Z,101355.78
2022-10-04T18:55:18.266Z,101360.09
2022-10-04T18:58:17.702Z,101354.88
2022-10-04T19:01:12.254Z,101354.84
2022-10-04T19:03:52.793Z,101349.56
2022-10-04T19:06:27.161Z,101350.44
2022-10-04T19:09:41.547Z,101359.16
2022-10-04T19:12:36.614Z,101363.44
2022-10-04T19:15:15.212Z,101383.50
2022-10-04T19:17:49.836Z,101387.00
2022-10-04T19:20:26.259Z,101406.16
2022-10-04T19:23:34.935Z,101418.34
2022-10-04T19:26:31.264Z,101420.94
2022-10-04T19:29:08.792Z,101411.28
2022-10-04T19:31:54.204Z,101392.31
2022-10-04T19:34:32.854Z,101390.63
2022-10-04T19:37:06.901Z,101387.94
2022-10-04T19:40:07.546Z,101374.81
2022-10-04T19:43:07.764Z,101380.97
2022-10-04T19:46:11.606Z,101382.59
2022-10-04T19:48:49.806Z,101381.78
2022-10-04T19:51:38.175Z,101374.81
2022-10-04T19:54:15.634Z,101375.69
2022-10-04T19:56:47.137Z,101375.69
2022-10-04T19:59:22.871Z,101373.00
2022-10-04T20:01:52.970Z,101373.91
2022-10-04T20:04:37.942Z,101385.28
2022-10-04T20:07:18.321Z,101391.31
2022-10-04T20:09:47.717Z,101387.00
2022-10-04T20:12:37.355Z,101387.81
2022-10-04T20:15:16.804Z,101387.09
2022-10-04T20:17:48.146Z,101376.69
2022-10-04T20:20:43.343Z,101376.78
2022-10-04T20:23:10.547Z,101372.47
2022-10-04T20:25:45.907Z,101366.53
2022-10-04T20:28:32.330Z,101362.13
2022-10-04T20:31:02.120Z,101365.59
2022-10-04T20:33:34.284Z,101368.22
2022-10-04T20:36:02.505Z,101378.69
2022-10-04T20:38:52.408Z,101386.56
2022-10-04T20:41:27.781Z,101387.56
2022-10-04T20:43:59.036Z,101377.97
2022-10-04T20:46:27.091Z,101370.16
2022-10-04T20:48:54.169Z,101360.63
2022-10-04T20:51:22.615Z,101352.81
2022-10-04T20:53:51.999Z,101364.06
2022-10-04T20:56:24.308Z,101359.72
2022-10-04T20:58:52.167Z,101354.38
2022-10-04T21:01:41.337Z,101352.63
2022-10-04T21:04:26.416Z,101349.81
2022-10-04T21:06:53.470Z,101347.16
2022-10-04T21:09:20.220Z,101338.47
2022-10-04T21:11:50.444Z,101334.19
2022-10-04T21:14:24.736Z,101331.56
2022-10-04T21:16:55.599Z,101325.50
2022-10-04T21:19:35.477Z,101325.47
2022-10-04T21:22:06.882Z,101317.63
2022-10-04T21:24:43.177Z,101333.25
2022-10-04T21:27:12.595Z,101343.66
2022-10-04T21:29:39.599Z,101348.00
2022-10-04T21:32:06.141Z,101349.69
2022-10-04T21:34:52.574Z,101351.44
2022-10-04T21:37:20.519Z,101356.63
2022-10-04T21:39:46.963Z,101367.00
2022-10-04T21:42:13.350Z,101361.78
2022-10-04T21:44:39.727Z,101368.72
2022-10-04T21:47:06.062Z,101354.75
2022-10-04T21:49:32.388Z,101365.22
2022-10-04T21:51:58.752Z,101359.03
2022-10-04T21:54:25.028Z,101359.09
2022-10-04T21:56:51.307Z,101358.22
2022-10-04T21:59:17.592Z,101346.16
2022-10-04T22:01:43.888Z,101350.56
2022-10-04T22:04:10.629Z,101352.47
2022-10-04T22:06:37.074Z,101343.75
2022-10-04T22:09:03.894Z,101346.34
2022-10-04T22:11:30.561Z,101345.50
2022-10-04T22:13:56.845Z,101348.00
2022-10-04T22:16:23.188Z,101347.25
2022-10-04T22:18:49.623Z,101339.38
2022-10-04T22:21:16.203Z,101342.06
2022-10-04T22:23:43.812Z,101336.88
2022-10-04T22:26:13.064Z,101334.22
2022-10-04T22:28:44.959Z,101331.59
2022-10-04T22:31:13.390Z,101334.19
2022-10-04T22:33:41.891Z,101330.59
2022-10-04T22:36:20.203Z,101325.38
2022-10-04T22:38:54.522Z,101319.25
2022-10-04T22:41:20.918Z,101317.53
2022-10-04T22:43:49.510Z,101320.25
2022-10-04T22:46:18.214Z,101314.00
2022-10-04T22:48:46.602Z,101313.09
2022-10-04T22:51:13.586Z,101312.28
2022-10-04T22:53:44.961Z,101308.78
2022-10-04T22:56:15.604Z,101300.16
2022-10-04T22:58:42.578Z,101288.81
2022-10-04T23:01:13.248Z,101295.78
2022-10-04T23:03:39.588Z,101300.19
2022-10-04T23:06:12.459Z,101295.91
2022-10-04T23:08:39.164Z,101290.69
2022-10-04T23:11:05.620Z,101295.88
2022-10-04T23:13:31.965Z,101297.84
2022-10-04T23:16:01.627Z,101289.91
2022-10-04T23:18:29.126Z,101284.56
2022-10-04T23:21:01.007Z,101292.41
2022-10-04T23:23:30.305Z,101283.84
2022-10-04T23:25:56.685Z,101283.88
2022-10-04T23:28:24.080Z,101289.91
2022-10-04T23:31:20.685Z,101288.22
2022-10-04T23:33:47.065Z,101269.25
2022-10-04T23:36:15.147Z,101272.63
2022-10-04T23:39:12.890Z,101270.06
2022-10-04T23:41:39.424Z,101262.22
2022-10-04T23:44:13.130Z,101266.59
2022-10-04T23:46:39.570Z,101276.25
2022-10-04T23:49:09.195Z,101266.56
2022-10-04T23:51:35.776Z,101263.09
2022-10-04T23:54:02.054Z,101257.06
2022-10-04T23:56:29.312Z,101250.97
2022-10-04T23:58:58.665Z,101249.25
